Time;durP1;ratioP1;P1;durP2;ratioP2;P2;SDS_P1;SDS_P2;PMS_P1;PMS_P2;Temp;Humidity;BMP_temperature;BMP_pressure;BME280_temperature;BME280_humidity;BME280_pressure;Samples;Min_cycle;Max_cycle;Signal;HPM_P1;HPM_P2
2023/09/29 03:52:55;;;;;;;;;;;;;;;;;;5062993;28;19970;-74
2023/09/29 03:55:22;;;;;;;;;;;;;;;;;;5055043;28;19928;-74
2023/09/29 03:57:49;;;;;;;;;;;;;;;;;;5055301;28;19932;-74
2023/09/29 04:00:18;;;;;;;;;;;;;;;;;;5055004;28;19979;-71
2023/09/29 04:02:45;;;;;;;;;;;;;;;;;;5055016;28;19974;-71
2023/09/29 04:05:12;;;;;;;;;;;;;;;;;;5078271;22;20309;-70
2023/09/29 04:07:39;;;;;;;;;;;;;;;;;;5054899;28;19925;-72
2023/09/29 04:10:08;;;;;;;;;;;;;;;;;;5054523;28;20336;-71
2023/09/29 04:12:35;;;;;;;;;;;;;;;;;;5054826;28;20012;-70
2023/09/29 04:15:02;;;;;;;;;;;;;;;;;;5054611;28;19925;-70
2023/09/29 04:17:29;;;;;;;;;;;;;;;;;;5054670;28;19925;-72
2023/09/29 04:19:56;;;;;;;;;;;;;;;;;;5054639;28;19947;-72
2023/09/29 04:22:24;;;;;;;;;;;;;;;;;;5054628;28;19932;-73
2023/09/29 04:24:50;;;;;;;;;;;;;;;;;;5054224;28;20393;-72
2023/09/29 04:27:17;;;;;;;;;;;;;;;;;;5054342;28;19932;-71
2023/09/29 04:29:44;;;;;;;;;;;;;;;;;;5053941;28;19924;-71
2023/09/29 04:32:11;;;;;;;;;;;;;;;;;;5054532;28;19928;-71
2023/09/29 04:34:38;;;;;;;;;;;;;;;;;;5054392;28;19932;-70
2023/09/29 04:37:05;;;;;;;;;;;;;;;;;;5054295;28;20386;-70
2023/09/29 04:39:32;;;;;;;;;;;;;;;;;;5061927;28;19932;-70
2023/09/29 04:41:59;;;;;;;;;;;;;;;;;;5062222;28;19932;-72
2023/09/29 04:44:26;;;;;;;;;;;;;;;;;;5054641;28;19925;-72
2023/09/29 04:46:53;;;;;;;;;;;;;;;;;;5054849;28;19924;-71
2023/09/29 04:49:19;;;;;;;;;;;;;;;;;;5054348;28;19925;-70
2023/09/29 04:51:46;;;;;;;;;;;;;;;;;;5054339;28;19925;-71
2023/09/29 04:54:13;;;;;;;;;;;;;;;;;;5054091;28;19925;-72
2023/09/29 04:56:40;;;;;;;;;;;;;;;;;;5054123;28;19932;-72
2023/09/29 05:01:48;;;;;;;;;;;;;;;;;;5052588;28;19932;-73
2023/09/29 05:04:15;;;;;;;;;;;;;;;;;;5054046;28;19925;-73
2023/09/29 05:06:43;;;;;;;;;;;;;;;;;;5054005;28;19936;-73
2023/09/29 05:09:11;;;;;;;;;;;;;;;;;;5053988;28;19974;-73
2023/09/29 05:11:38;;;;;;;;;;;;;;;;;;5053977;28;19932;-73
2023/09/29 05:14:05;;;;;;;;;;;;;;;;;;5053874;28;19925;-75
2023/09/29 05:16:32;;;;;;;;;;;;;;;;;;5053908;28;19936;-74
2023/09/29 05:19:00;;;;;;;;;;;;;;;;;;5053923;28;19924;-74
2023/09/29 05:21:27;;;;;;;;;;;;;;;;;;5054302;28;19925;-73
2023/09/29 05:23:54;;;;;;;;;;;;;;;;;;5053966;28;19925;-71
2023/09/29 05:26:21;;;;;;;;;;;;;;;;;;5053687;28;20382;-75
2023/09/29 05:28:49;;;;;;;;;;;;;;;;;;5053869;28;19924;-72
2023/09/29 05:31:16;;;;;;;;;;;;;;;;;;5053727;28;19925;-74
2023/09/29 05:33:43;;;;;;;;;;;;;;;;;;5053703;28;19924;-74
2023/09/29 05:36:10;;;;;;;;;;;;;;;;;;5054631;28;19933;-73
2023/09/29 05:38:37;;;;;;;;;;;;;;;;;;5053577;28;19924;-73
2023/09/29 05:41:04;;;;;;;;;;;;;;;;;;5057342;28;19950;-73
2023/09/29 05:43:31;;;;;;;;;;;;;;;;;;5057613;28;19925;-71
2023/09/29 05:45:58;;;;;;;;;;;;;;;;;;5057502;28;19925;-71
2023/09/29 05:48:25;;;;;;;;;;;;;;;;;;5057432;28;19924;-71
2023/09/29 05:50:51;;;;;;;;;;;;;;;;;;5057467;28;19927;-71
2023/09/29 05:53:18;;;;;;;;;;;;;;;;;;5057316;28;19996;-71
2023/09/29 05:55:45;;;;;;;;;;;;;;;;;;5057323;28;20267;-71
2023/09/29 05:58:12;;;;;;;;;;;;;;;;;;5057547;28;19936;-71
2023/09/29 06:00:39;;;;;;;;;;;;;;;;;;5057330;28;19925;-71
2023/09/29 06:03:06;;;;;;;;;;;;;;;;;;5057269;28;19931;-71
2023/09/29 06:05:33;;;;;;;;;;;;;;;;;;5056840;28;19924;-71
2023/09/29 06:08:00;;;;;;;;;;;;;;;;;;5057201;28;19925;-71
2023/09/29 06:10:27;;;;;;;;;;;;;;;;;;5056816;28;20386;-71
2023/09/29 06:12:54;;;;;;;;;;;;;;;;;;5057093;28;19925;-70
2023/09/29 06:15:21;;;;;;;;;;;;;;;;;;5056996;28;19932;-71
2023/09/29 06:17:48;;;;;;;;;;;;;;;;;;5056998;28;19925;-70
2023/09/29 06:20:15;;;;;;;;;;;;;;;;;;5056981;28;19925;-71
2023/09/29 06:22:42;;;;;;;;;;;;;;;;;;5056643;28;20382;-71
2023/09/29 06:25:09;;;;;;;;;;;;;;;;;;5056796;28;19932;-71
2023/09/29 06:27:36;;;;;;;;;;;;;;;;;;5056828;28;19928;-71
2023/09/29 06:30:03;;;;;;;;;;;;;;;;;;5056454;28;19936;-71
2023/09/29 06:32:29;;;;;;;;;;;;;;;;;;5056658;28;19933;-72
2023/09/29 06:34:56;;;;;;;;;;;;;;;;;;5056596;28;19931;-72
2023/09/29 06:37:23;;;;;;;;;;;;;;;;;;5056572;28;20332;-71
2023/09/29 06:39:50;;;;;;;;;;;;;;;;;;5056237;28;20298;-71
2023/09/29 06:42:17;;;;;;;;;;;;;;;;;;5056347;28;19932;-71
2023/09/29 06:44:44;;;;;;;;;;;;;;;;;;5056371;28;19925;-71
2023/09/29 06:47:11;;;;;;;;;;;;;;;;;;5056428;28;19925;-71
2023/09/29 06:49:38;;;;;;;;;;;;;;;;;;5056362;28;19932;-71
2023/09/29 06:52:05;;;;;;;;;;;;;;;;;;5055378;28;19925;-71
2023/09/29 06:54:32;;;;;;;;;;;;;;;;;;5056224;28;19932;-71
2023/09/29 06:56:58;;;;;;;;;;;;;;;;;;5056315;28;19925;-71
2023/09/29 06:59:25;;;;;;;;;;;;;;;;;;5056149;28;19932;-71
2023/09/29 07:01:54;;;;;;;;;;;;;;;;;;5055850;28;20374;-72
2023/09/29 07:04:21;;;;;;;;;;;;;;;;;;5055817;28;19986;-71
2023/09/29 07:06:48;;;;;;;;;;;;;;;;;;5055669;28;20283;-71
2023/09/29 07:09:15;;;;;;;;;;;;;;;;;;5055935;28;19925;-71
2023/09/29 07:11:44;;;;;;;;;;;;;;;;;;5055481;28;19925;-71
2023/09/29 07:14:11;;;;;;;;;;;;;;;;;;5055787;28;19964;-71
2023/09/29 07:16:38;;;;;;;;;;;;;;;;;;5055623;28;19932;-71
2023/09/29 07:19:05;;;;;;;;;;;;;;;;;;5055925;28;19925;-71
2023/09/29 07:21:32;;;;;;;;;;;;;;;;;;5055767;28;19925;-71
2023/09/29 07:23:59;;;;;;;;;;;;;;;;;;5055354;28;20409;-71
2023/09/29 07:26:26;;;;;;;;;;;;;;;;;;5055656;28;19936;-71
2023/09/29 07:28:54;;;;;;;;;;;;;;;;;;5055514;28;20377;-71
2023/09/29 07:31:21;;;;;;;;;;;;;;;;;;5055679;28;19924;-71
2023/09/29 07:33:48;;;;;;;;;;;;;;;;;;5055600;28;20021;-71
2023/09/29 07:36:15;;;;;;;;;;;;;;;;;;5055191;28;19947;-71
2023/09/29 07:38:42;;;;;;;;;;;;;;;;;;5055492;28;19928;-71
2023/09/29 07:41:08;;;;;;;;;;;;;;;;;;5055427;28;19932;-71
2023/09/29 07:43:35;;;;;;;;;;;;;;;;;;5055314;28;20389;-71
2023/09/29 07:46:03;;;;;;;;;;;;;;;;;;5055366;28;19932;-71
2023/09/29 07:48:30;;;;;;;;;;;;;;;;;;5055392;28;19925;-71
2023/09/29 07:50:57;;;;;;;;;;;;;;;;;;5055277;28;19925;-71
2023/09/29 07:53:24;;;;;;;;;;;;;;;;;;5055189;28;19928;-71
2023/09/29 07:55:52;;;;;;;;;;;;;;;;;;5055099;28;19924;-71
2023/09/29 07:58:19;;;;;;;;;;;;;;;;;;5055182;28;19924;-71
2023/09/29 08:00:45;;;;;;;;;;;;;;;;;;5055074;28;19925;-70
2023/09/29 08:03:12;;;;;;;;;;;;;;;;;;5054751;28;20385;-70
2023/09/29 08:05:39;;;;;;;;;;;;;;;;;;5054561;28;19989;-71
2023/09/29 08:08:06;;;;;;;;;;;;;;;;;;5054839;28;19925;-70
2023/09/29 08:10:33;;;;;;;;;;;;;;;;;;5054878;28;19925;-70
2023/09/29 08:13:00;;;;;;;;;;;;;;;;;;5054765;28;19948;-70
2023/09/29 08:15:27;;;;;;;;;;;;;;;;;;5054688;28;19933;-70
2023/09/29 08:17:54;;;;;;;;;;;;;;;;;;5054689;28;19924;-70
2023/09/29 08:20:21;;;;;;;;;;;;;;;;;;5054391;28;20390;-70
2023/09/29 08:22:48;;;;;;;;;;;;;;;;;;5054560;28;19925;-70
2023/09/29 08:25:15;;;;;;;;;;;;;;;;;;5054782;28;19928;-71
2023/09/29 08:27:42;;;;;;;;;;;;;;;;;;5054669;28;19971;-71
2023/09/29 08:30:10;;;;;;;;;;;;;;;;;;5054916;28;19931;-72
2023/09/29 08:32:37;;;;;;;;;;;;;;;;;;5054587;28;19971;-72
2023/09/29 08:35:04;;;;;;;;;;;;;;;;;;5054615;28;19925;-72
2023/09/29 08:37:31;;;;;;;;;;;;;;;;;;5054541;28;19932;-71
2023/09/29 08:39:58;;;;;;;;;;;;;;;;;;5054390;28;19925;-72
2023/09/29 08:42:26;;;;;;;;;;;;;;;;;;5054636;28;20281;-72
2023/09/29 08:44:53;;;;;;;;;;;;;;;;;;5054492;28;19925;-71
2023/09/29 08:47:20;;;;;;;;;;;;;;;;;;5054417;28;19932;-72
2023/09/29 08:49:48;;;;;;;;;;;;;;;;;;5054483;28;19929;-72
2023/09/29 08:52:14;;;;;;;;;;;;;;;;;;5054318;28;19928;-71
2023/09/29 08:54:41;;;;;;;;;;;;;;;;;;5054441;28;19925;-71
2023/09/29 08:57:08;;;;;;;;;;;;;;;;;;5054177;28;19925;-72
2023/09/29 08:59:35;;;;;;;;;;;;;;;;;;5055134;28;19931;-71
2023/09/29 09:02:03;;;;;;;;;;;;;;;;;;5054270;28;19999;-71
2023/09/29 09:04:30;;;;;;;;;;;;;;;;;;5054282;28;19924;-72
2023/09/29 09:06:57;;;;;;;;;;;;;;;;;;5055195;28;19931;-71
2023/09/29 09:09:24;;;;;;;;;;;;;;;;;;5055033;28;19925;-72
2023/09/29 09:11:51;;;;;;;;;;;;;;;;;;5055129;28;19931;-72
2023/09/29 09:14:20;;;;;;;;;;;;;;;;;;5054247;28;19928;-71
2023/09/29 09:16:46;;;;;;;;;;;;;;;;;;5053677;28;20301;-71
2023/09/29 09:19:13;;;;;;;;;;;;;;;;;;5054628;28;19925;-71
2023/09/29 09:21:40;;;;;;;;;;;;;;;;;;5053864;28;19925;-71
2023/09/29 09:24:07;;;;;;;;;;;;;;;;;;5053541;28;20413;-71
2023/09/29 09:26:34;;;;;;;;;;;;;;;;;;5054030;28;19932;-71
2023/09/29 09:29:01;;;;;;;;;;;;;;;;;;5054001;28;20305;-71
2023/09/29 09:31:28;;;;;;;;;;;;;;;;;;5053728;28;19932;-71
2023/09/29 09:33:55;;;;;;;;;;;;;;;;;;5057627;28;19935;-71
2023/09/29 09:36:22;;;;;;;;;;;;;;;;;;5059728;28;19924;-71
2023/09/29 09:38:49;;;;;;;;;;;;;;;;;;5059811;28;19925;-72
2023/09/29 09:41:16;;;;;;;;;;;;;;;;;;5057061;28;19924;-71
2023/09/29 09:43:43;;;;;;;;;;;;;;;;;;5058437;28;19932;-71
2023/09/29 09:46:12;;;;;;;;;;;;;;;;;;5053802;28;19925;-71
2023/09/29 09:48:39;;;;;;;;;;;;;;;;;;5053668;28;19925;-71
2023/09/29 09:51:07;;;;;;;;;;;;;;;;;;5053506;28;19947;-71
2023/09/29 09:53:34;;;;;;;;;;;;;;;;;;5053188;28;19972;-70
2023/09/29 09:56:01;;;;;;;;;;;;;;;;;;5053536;28;19924;-70
2023/09/29 09:58:28;;;;;;;;;;;;;;;;;;5054698;28;20023;-70
2023/09/29 10:00:55;;;;;;;;;;;;;;;;;;5053758;28;20428;-71
2023/09/29 10:03:22;;;;;;;;;;;;;;;;;;5055378;28;19932;-70
2023/09/29 10:05:52;;;;;;;;;;;;;;;;;;5055597;28;19925;-70
2023/09/29 10:08:19;;;;;;;;;;;;;;;;;;5054523;28;19925;-71
2023/09/29 10:10:46;;;;;;;;;;;;;;;;;;5057276;28;19924;-72
2023/09/29 10:13:15;;;;;;;;;;;;;;;;;;5056935;28;19937;-72
2023/09/29 10:15:42;;;;;;;;;;;;;;;;;;5056253;28;19925;-72
2023/09/29 10:18:10;;;;;;;;;;;;;;;;;;5056183;28;19932;-72
2023/09/29 10:20:37;;;;;;;;;;;;;;;;;;5053557;28;19928;-71
2023/09/29 10:23:06;;;;;;;;;;;;;;;;;;5053634;28;19999;-70
2023/09/29 10:25:33;;;;;;;;;;;;;;;;;;5053276;28;19964;-70
2023/09/29 10:28:00;;;;;;;;;;;;;;;;;;5096857;22;19925;-67
2023/09/29 10:30:27;;;;;;;;;;;;;;;;;;5056688;28;19924;-67
2023/09/29 10:32:54;;;;;;;;;;;;;;;;;;5056576;28;19932;-67
2023/09/29 10:35:22;;;;;;;;;;;;;;;;;;5056444;28;20373;-67
2023/09/29 10:37:54;;;;;;;;;;;;;;;;;;5056600;28;19978;-67
2023/09/29 10:40:22;;;;;;;;;;;;;;;;;;5056414;28;20344;-67
2023/09/29 10:42:54;;;;;;;;;;;;;;;;;;5056571;28;19971;-67
2023/09/29 10:45:21;;;;;;;;;;;;;;;;;;5056625;28;19924;-67
2023/09/29 10:47:48;;;;;;;;;;;;;;;;;;5056412;28;19924;-67
2023/09/29 10:50:15;;;;;;;;;;;;;;;;;;5056329;28;19924;-67
2023/09/29 10:52:42;;;;;;;;;;;;;;;;;;5056627;28;19924;-67
2023/09/29 10:55:09;;;;;;;;;;;;;;;;;;5056388;28;19932;-67
2023/09/29 10:57:36;;;;;;;;;;;;;;;;;;5056488;28;19925;-67
2023/09/29 11:00:03;;;;;;;;;;;;;;;;;;5056467;28;19944;-68
2023/09/29 11:02:30;;;;;;;;;;;;;;;;;;5056879;28;19924;-68
2023/09/29 11:04:57;;;;;;;;;;;;;;;;;;5056931;28;20369;-68
2023/09/29 11:07:29;;;;;;;;;;;;;;;;;;5057424;28;19924;-68
2023/09/29 11:09:56;;;;;;;;;;;;;;;;;;5057118;28;19986;-68
2023/09/29 11:12:27;;;;;;;;;;;;;;;;;;5056469;28;19924;-67
2023/09/29 11:14:54;;;;;;;;;;;;;;;;;;5056867;28;20320;-68
2023/09/29 11:17:20;;;;;;;;;;;;;;;;;;5056109;28;19971;-68
2023/09/29 11:19:48;;;;;;;;;;;;;;;;;;5055944;28;20381;-68
2023/09/29 11:22:15;;;;;;;;;;;;;;;;;;5055782;28;20443;-68
2023/09/29 11:24:46;;;;;;;;;;;;;;;;;;5056238;28;19990;-68
2023/09/29 11:27:14;;;;;;;;;;;;;;;;;;5055751;28;19935;-70
2023/09/29 11:29:43;;;;;;;;;;;;;;;;;;5056064;28;19925;-69
2023/09/29 11:32:09;;;;;;;;;;;;;;;;;;5055688;28;19925;-70
2023/09/29 11:34:36;;;;;;;;;;;;;;;;;;5055269;28;20373;-70
2023/09/29 11:37:04;;;;;;;;;;;;;;;;;;5055198;28;19935;-69
2023/09/29 11:39:31;;;;;;;;;;;;;;;;;;5055470;28;19924;-69
2023/09/29 11:41:58;;;;;;;;;;;;;;;;;;5055497;28;19925;-69
2023/09/29 11:44:26;;;;;;;;;;;;;;;;;;5055530;28;19931;-70
2023/09/29 11:46:53;;;;;;;;;;;;;;;;;;5055379;28;19925;-70
2023/09/29 11:49:20;;;;;;;;;;;;;;;;;;5055032;28;19925;-70
2023/09/29 11:51:52;;;;;;;;;;;;;;;;;;5055194;28;19932;-70
2023/09/29 11:54:19;;;;;;;;;;;;;;;;;;5055221;28;19924;-70
2023/09/29 11:56:46;;;;;;;;;;;;;;;;;;5055073;28;19932;-70
2023/09/29 11:59:13;;;;;;;;;;;;;;;;;;5055623;28;20314;-70
2023/09/29 12:01:40;;;;;;;;;;;;;;;;;;5055126;28;19925;-70
2023/09/29 12:04:07;;;;;;;;;;;;;;;;;;5054756;28;20378;-70
2023/09/29 12:06:34;;;;;;;;;;;;;;;;;;5054844;28;19928;-70
2023/09/29 12:09:00;;;;;;;;;;;;;;;;;;5054529;28;19925;-70
2023/09/29 12:11:27;;;;;;;;;;;;;;;;;;5054928;28;19932;-70
2023/09/29 12:13:54;;;;;;;;;;;;;;;;;;5055129;28;19925;-69
2023/09/29 12:16:21;;;;;;;;;;;;;;;;;;5055098;28;19929;-69
2023/09/29 12:18:48;;;;;;;;;;;;;;;;;;5054993;28;19924;-69
2023/09/29 12:21:15;;;;;;;;;;;;;;;;;;5055126;28;19925;-69
2023/09/29 12:23:42;;;;;;;;;;;;;;;;;;5054963;28;20019;-70
2023/09/29 12:26:09;;;;;;;;;;;;;;;;;;5054437;28;20385;-70
2023/09/29 12:28:36;;;;;;;;;;;;;;;;;;5055205;28;19924;-70
2023/09/29 12:31:03;;;;;;;;;;;;;;;;;;5054636;28;19931;-69
2023/09/29 12:33:30;;;;;;;;;;;;;;;;;;5054602;28;19932;-70
2023/09/29 12:35:56;;;;;;;;;;;;;;;;;;5054754;28;19925;-69
2023/09/29 12:38:23;;;;;;;;;;;;;;;;;;5054495;28;19925;-68
2023/09/29 12:40:50;;;;;;;;;;;;;;;;;;5054366;28;19925;-69
2023/09/29 12:43:17;;;;;;;;;;;;;;;;;;5054321;28;20011;-69
2023/09/29 12:45:44;;;;;;;;;;;;;;;;;;5054191;28;19929;-69
2023/09/29 12:48:11;;;;;;;;;;;;;;;;;;5054187;28;19932;-69
2023/09/29 12:50:40;;;;;;;;;;;;;;;;;;5053455;28;19929;-71
2023/09/29 12:53:07;;;;;;;;;;;;;;;;;;5054134;28;19976;-70
2023/09/29 12:55:34;;;;;;;;;;;;;;;;;;5054209;28;20308;-69
2023/09/29 12:58:01;;;;;;;;;;;;;;;;;;5054586;28;19931;-69
2023/09/29 13:00:28;;;;;;;;;;;;;;;;;;5054166;28;19925;-69
2023/09/29 13:02:59;;;;;;;;;;;;;;;;;;5054143;28;19929;-69
2023/09/29 13:05:25;;;;;;;;;;;;;;;;;;5054075;28;19983;-70
2023/09/29 13:07:53;;;;;;;;;;;;;;;;;;5053812;28;19925;-70
2023/09/29 13:10:21;;;;;;;;;;;;;;;;;;5053026;28;21760;-69
2023/09/29 13:12:54;;;;;;;;;;;;;;;;;;5053714;28;20309;-69
2023/09/29 13:15:21;;;;;;;;;;;;;;;;;;5053924;28;19929;-70
2023/09/29 13:17:48;;;;;;;;;;;;;;;;;;5053878;28;19979;-71
2023/09/29 13:20:16;;;;;;;;;;;;;;;;;;5053970;28;19931;-71
2023/09/29 13:22:43;;;;;;;;;;;;;;;;;;5053565;28;20278;-70
2023/09/29 13:25:10;;;;;;;;;;;;;;;;;;5053866;28;19924;-70
2023/09/29 13:27:37;;;;;;;;;;;;;;;;;;5053468;28;19932;-70
2023/09/29 13:30:04;;;;;;;;;;;;;;;;;;5053890;28;19924;-70
2023/09/29 13:32:31;;;;;;;;;;;;;;;;;;5053898;28;19924;-71
2023/09/29 13:34:58;;;;;;;;;;;;;;;;;;5053723;28;19932;-68
2023/09/29 13:37:25;;;;;;;;;;;;;;;;;;5053270;28;20381;-68
2023/09/29 13:39:56;;;;;;;;;;;;;;;;;;5053619;28;19925;-68
2023/09/29 13:42:23;;;;;;;;;;;;;;;;;;5053489;28;19925;-68
2023/09/29 13:44:50;;;;;;;;;;;;;;;;;;5055093;28;20364;-70
2023/09/29 13:47:17;;;;;;;;;;;;;;;;;;5053778;28;19978;-70
2023/09/29 13:49:44;;;;;;;;;;;;;;;;;;5053899;28;19924;-71
2023/09/29 13:52:12;;;;;;;;;;;;;;;;;;5053490;28;19932;-70
2023/09/29 13:54:39;;;;;;;;;;;;;;;;;;5054360;28;19925;-70
2023/09/29 13:57:05;;;;;;;;;;;;;;;;;;5053300;28;19931;-70
2023/09/29 13:59:32;;;;;;;;;;;;;;;;;;5053522;28;19932;-70
2023/09/29 14:02:00;;;;;;;;;;;;;;;;;;5056913;28;19925;-70
2023/09/29 14:04:26;;;;;;;;;;;;;;;;;;5057280;28;19925;-70
2023/09/29 14:06:54;;;;;;;;;;;;;;;;;;5057131;28;19931;-69
2023/09/29 14:09:21;;;;;;;;;;;;;;;;;;5057035;28;20416;-69
2023/09/29 14:11:49;;;;;;;;;;;;;;;;;;5057537;28;19932;-69
2023/09/29 14:14:17;;;;;;;;;;;;;;;;;;5057377;28;20300;-69
2023/09/29 14:16:44;;;;;;;;;;;;;;;;;;5057155;28;19929;-69
2023/09/29 14:19:11;;;;;;;;;;;;;;;;;;5057868;28;19971;-70
2023/09/29 14:21:38;;;;;;;;;;;;;;;;;;5056835;28;20382;-70
2023/09/29 14:24:05;;;;;;;;;;;;;;;;;;5057531;28;19929;-70
2023/09/29 14:26:32;;;;;;;;;;;;;;;;;;5056892;28;19955;-70
2023/09/29 14:28:59;;;;;;;;;;;;;;;;;;5056980;28;19924;-70
2023/09/29 14:31:26;;;;;;;;;;;;;;;;;;5058293;28;19970;-70
2023/09/29 14:33:54;;;;;;;;;;;;;;;;;;5059080;28;19948;-70
2023/09/29 14:36:21;;;;;;;;;;;;;;;;;;5057569;28;19925;-69
2023/09/29 14:38:48;;;;;;;;;;;;;;;;;;5057007;28;19925;-71
2023/09/29 14:41:15;;;;;;;;;;;;;;;;;;5057535;28;19974;-72
2023/09/29 14:43:44;;;;;;;;;;;;;;;;;;5057539;28;19931;-71
2023/09/29 14:46:13;;;;;;;;;;;;;;;;;;5057160;28;19931;-71
2023/09/29 14:48:40;;;;;;;;;;;;;;;;;;5057656;28;20349;-70
2023/09/29 14:51:07;;;;;;;;;;;;;;;;;;5056525;28;19925;-70
2023/09/29 14:53:34;;;;;;;;;;;;;;;;;;5057004;28;20282;-70
2023/09/29 14:56:01;;;;;;;;;;;;;;;;;;5056508;28;19932;-70
2023/09/29 14:58:28;;;;;;;;;;;;;;;;;;5056535;28;20301;-71
2023/09/29 15:00:55;;;;;;;;;;;;;;;;;;5056537;28;19931;-71
2023/09/29 15:03:22;;;;;;;;;;;;;;;;;;5056000;28;19925;-71
2023/09/29 15:05:48;;;;;;;;;;;;;;;;;;5056244;28;19925;-71
2023/09/29 15:08:16;;;;;;;;;;;;;;;;;;5055764;28;20378;-70
2023/09/29 15:10:43;;;;;;;;;;;;;;;;;;5056046;28;20084;-68
2023/09/29 15:13:10;;;;;;;;;;;;;;;;;;5055317;28;19931;-68
2023/09/29 15:15:36;;;;;;;;;;;;;;;;;;5055597;28;20381;-67
2023/09/29 15:18:04;;;;;;;;;;;;;;;;;;5056032;28;19925;-69
2023/09/29 15:20:31;;;;;;;;;;;;;;;;;;5056229;28;19925;-69
2023/09/29 15:22:58;;;;;;;;;;;;;;;;;;5055931;28;19925;-68
2023/09/29 15:25:25;;;;;;;;;;;;;;;;;;5055813;28;19947;-68
2023/09/29 15:27:53;;;;;;;;;;;;;;;;;;5055618;28;19964;-69
2023/09/29 15:30:20;;;;;;;;;;;;;;;;;;5055833;28;19931;-68
2023/09/29 15:32:47;;;;;;;;;;;;;;;;;;5056710;28;19933;-68
2023/09/29 15:35:13;;;;;;;;;;;;;;;;;;5055851;28;19925;-69
2023/09/29 15:37:40;;;;;;;;;;;;;;;;;;5056016;28;20283;-69
2023/09/29 15:40:08;;;;;;;;;;;;;;;;;;5056857;28;19925;-68
2023/09/29 15:42:35;;;;;;;;;;;;;;;;;;5056029;28;19974;-68
2023/09/29 15:45:02;;;;;;;;;;;;;;;;;;5056170;28;19924;-69
2023/09/29 15:47:29;;;;;;;;;;;;;;;;;;5055839;28;20293;-68
2023/09/29 15:49:56;;;;;;;;;;;;;;;;;;5056437;28;19932;-68
2023/09/29 15:52:23;;;;;;;;;;;;;;;;;;5056420;28;19924;-68
2023/09/29 15:54:49;;;;;;;;;;;;;;;;;;5056333;28;19929;-69
2023/09/29 15:57:16;;;;;;;;;;;;;;;;;;5055310;28;19928;-69
2023/09/29 15:59:43;;;;;;;;;;;;;;;;;;5055713;28;19925;-68
2023/09/29 16:02:11;;;;;;;;;;;;;;;;;;5057013;28;19928;-68
2023/09/29 16:04:38;;;;;;;;;;;;;;;;;;5056135;28;19975;-70
2023/09/29 16:07:05;;;;;;;;;;;;;;;;;;5055886;28;19925;-69
2023/09/29 16:09:32;;;;;;;;;;;;;;;;;;5057316;28;19925;-70
2023/09/29 16:11:59;;;;;;;;;;;;;;;;;;5056375;28;19925;-70
2023/09/29 16:14:26;;;;;;;;;;;;;;;;;;5056126;28;19924;-70
2023/09/29 16:16:53;;;;;;;;;;;;;;;;;;5056716;28;19929;-68
2023/09/29 16:19:20;;;;;;;;;;;;;;;;;;5056620;28;19931;-69
2023/09/29 16:21:46;;;;;;;;;;;;;;;;;;5055394;28;19928;-69
2023/09/29 16:24:13;;;;;;;;;;;;;;;;;;5054874;28;19925;-69
2023/09/29 16:26:40;;;;;;;;;;;;;;;;;;5094690;22;19925;-72
2023/09/29 16:29:07;;;;;;;;;;;;;;;;;;5054893;28;19924;-73
2023/09/29 16:31:34;;;;;;;;;;;;;;;;;;5054706;28;19924;-76
2023/09/29 16:34:01;;;;;;;;;;;;;;;;;;5054980;28;20389;-75
2023/09/29 16:36:32;;;;;;;;;;;;;;;;;;5054343;28;19932;-74
2023/09/29 16:38:58;;;;;;;;;;;;;;;;;;5054675;28;20309;-71
2023/09/29 16:41:25;;;;;;;;;;;;;;;;;;5055358;28;19925;-71
2023/09/29 16:43:52;;;;;;;;;;;;;;;;;;5055576;28;19925;-71
2023/09/29 16:46:20;;;;;;;;;;;;;;;;;;5055759;28;20389;-72
2023/09/29 16:48:47;;;;;;;;;;;;;;;;;;5056128;28;20390;-72
2023/09/29 16:51:14;;;;;;;;;;;;;;;;;;5056830;28;19931;-73
2023/09/29 16:53:41;;;;;;;;;;;;;;;;;;5056327;28;19931;-71
2023/09/29 16:56:08;;;;;;;;;;;;;;;;;;5054668;28;19925;-72
2023/09/29 16:58:35;;;;;;;;;;;;;;;;;;5055223;28;20281;-73
2023/09/29 17:01:03;;;;;;;;;;;;;;;;;;5055728;28;20005;-72
2023/09/29 17:03:30;;;;;;;;;;;;;;;;;;5055499;28;20023;-73
2023/09/29 17:05:57;;;;;;;;;;;;;;;;;;5056316;28;20427;-73
2023/09/29 17:08:25;;;;;;;;;;;;;;;;;;5055225;28;19932;-76
2023/09/29 17:10:52;;;;;;;;;;;;;;;;;;5055317;28;20377;-75
2023/09/29 17:13:19;;;;;;;;;;;;;;;;;;5055541;28;19982;-76
2023/09/29 17:15:46;;;;;;;;;;;;;;;;;;5054937;28;19932;-76
2023/09/29 17:18:13;;;;;;;;;;;;;;;;;;5055260;28;19935;-76
2023/09/29 17:20:40;;;;;;;;;;;;;;;;;;5053619;28;20408;-70
2023/09/29 17:23:06;;;;;;;;;;;;;;;;;;5053809;28;19925;-70
2023/09/29 17:25:34;;;;;;;;;;;;;;;;;;5053803;28;19925;-70
2023/09/29 17:28:01;;;;;;;;;;;;;;;;;;5053407;28;19939;-70
2023/09/29 17:30:28;;;;;;;;;;;;;;;;;;5053679;28;19924;-70
2023/09/29 17:32:55;;;;;;;;;;;;;;;;;;5053693;28;19925;-74
2023/09/29 17:35:21;;;;;;;;;;;;;;;;;;5054217;28;20445;-74
2023/09/29 17:37:48;;;;;;;;;;;;;;;;;;5057767;28;19925;-73
2023/09/29 17:40:15;;;;;;;;;;;;;;;;;;5057827;28;19925;-74
2023/09/29 17:42:42;;;;;;;;;;;;;;;;;;5057771;28;20294;-70
2023/09/29 17:45:09;;;;;;;;;;;;;;;;;;5057695;28;19932;-70
2023/09/29 17:47:36;;;;;;;;;;;;;;;;;;5057576;28;20306;-70
2023/09/29 17:50:04;;;;;;;;;;;;;;;;;;5057715;28;19932;-70
2023/09/29 17:52:31;;;;;;;;;;;;;;;;;;5057458;28;19928;-70
2023/09/29 17:54:59;;;;;;;;;;;;;;;;;;5057619;28;19932;-69
2023/09/29 17:57:26;;;;;;;;;;;;;;;;;;5058063;28;19925;-69
2023/09/29 17:59:53;;;;;;;;;;;;;;;;;;5058072;28;19925;-69
2023/09/29 18:02:20;;;;;;;;;;;;;;;;;;5057671;28;19931;-67
2023/09/29 18:04:47;;;;;;;;;;;;;;;;;;5057275;28;19924;-67
2023/09/29 18:07:15;;;;;;;;;;;;;;;;;;5057841;28;19932;-67
2023/09/29 18:09:42;;;;;;;;;;;;;;;;;;5058017;28;20362;-67
2023/09/29 18:12:09;;;;;;;;;;;;;;;;;;5057777;28;19925;-68
2023/09/29 18:14:36;;;;;;;;;;;;;;;;;;5057318;28;20366;-68
2023/09/29 18:17:03;;;;;;;;;;;;;;;;;;5058016;28;19924;-68
2023/09/29 18:19:30;;;;;;;;;;;;;;;;;;5057765;28;20015;-68
2023/09/29 18:21:57;;;;;;;;;;;;;;;;;;5057439;28;19925;-73
2023/09/29 18:24:24;;;;;;;;;;;;;;;;;;5057875;28;19925;-73
2023/09/29 18:26:52;;;;;;;;;;;;;;;;;;5057624;28;19944;-72
2023/09/29 18:29:19;;;;;;;;;;;;;;;;;;5058009;28;19932;-73
2023/09/29 18:31:46;;;;;;;;;;;;;;;;;;5057254;28;19932;-72
2023/09/29 18:34:13;;;;;;;;;;;;;;;;;;5057572;28;19947;-72
2023/09/29 18:36:40;;;;;;;;;;;;;;;;;;5056844;28;20367;-72
2023/09/29 18:39:07;;;;;;;;;;;;;;;;;;5057283;28;19932;-72
2023/09/29 18:41:34;;;;;;;;;;;;;;;;;;5057079;28;19931;-72
2023/09/29 18:44:01;;;;;;;;;;;;;;;;;;5057475;28;19928;-72
2023/09/29 18:46:28;;;;;;;;;;;;;;;;;;5056498;28;19925;-73
2023/09/29 18:48:55;;;;;;;;;;;;;;;;;;5056802;28;19925;-73
2023/09/29 18:51:22;;;;;;;;;;;;;;;;;;5057795;28;19925;-75
2023/09/29 18:53:49;;;;;;;;;;;;;;;;;;5058371;28;19924;-74
2023/09/29 18:56:18;;;;;;;;;;;;;;;;;;5058471;28;19924;-74
2023/09/29 18:58:46;;;;;;;;;;;;;;;;;;5057867;28;19924;-74
2023/09/29 19:01:13;;;;;;;;;;;;;;;;;;5058899;28;20389;-74
2023/09/29 19:03:39;;;;;;;;;;;;;;;;;;5059320;28;19925;-74
2023/09/29 19:06:06;;;;;;;;;;;;;;;;;;5059589;28;19932;-74
2023/09/29 19:08:33;;;;;;;;;;;;;;;;;;5057059;28;19924;-74
2023/09/29 19:11:00;;;;;;;;;;;;;;;;;;5057499;28;19932;-74
2023/09/29 19:13:27;;;;;;;;;;;;;;;;;;5057101;28;19924;-74
2023/09/29 19:15:54;;;;;;;;;;;;;;;;;;5057185;28;19925;-75
2023/09/29 19:18:21;;;;;;;;;;;;;;;;;;5057001;28;19932;-74
2023/09/29 19:20:48;;;;;;;;;;;;;;;;;;5057539;28;19932;-74
2023/09/29 19:23:16;;;;;;;;;;;;;;;;;;5057674;28;20405;-75
2023/09/29 19:25:43;;;;;;;;;;;;;;;;;;5057271;28;19955;-75
2023/09/29 19:28:10;;;;;;;;;;;;;;;;;;5057179;28;19976;-76
2023/09/29 19:30:37;;;;;;;;;;;;;;;;;;5057555;28;19925;-74
2023/09/29 19:33:06;;;;;;;;;;;;;;;;;;5057820;28;19932;-76
2023/09/29 19:35:34;;;;;;;;;;;;;;;;;;5057636;28;19947;-74
2023/09/29 19:38:01;;;;;;;;;;;;;;;;;;5057178;28;20379;-74
2023/09/29 19:40:28;;;;;;;;;;;;;;;;;;5057855;28;19998;-73
2023/09/29 19:42:55;;;;;;;;;;;;;;;;;;5057008;28;19931;-73
2023/09/29 19:45:23;;;;;;;;;;;;;;;;;;5056427;28;19928;-74
2023/09/29 19:47:51;;;;;;;;;;;;;;;;;;5056665;28;19972;-73
2023/09/29 19:50:18;;;;;;;;;;;;;;;;;;5056922;28;19925;-72
2023/09/29 19:52:47;;;;;;;;;;;;;;;;;;5056330;28;19924;-74
2023/09/29 19:55:15;;;;;;;;;;;;;;;;;;5056019;28;19925;-73
2023/09/29 19:57:42;;;;;;;;;;;;;;;;;;5055659;28;20382;-73
2023/09/29 20:00:10;;;;;;;;;;;;;;;;;;5055800;28;19924;-72
2023/09/29 20:02:37;;;;;;;;;;;;;;;;;;5056601;28;19933;-73
2023/09/29 20:05:03;;;;;;;;;;;;;;;;;;5055879;28;19975;-73
2023/09/29 20:07:30;;;;;;;;;;;;;;;;;;5055747;28;19947;-72
2023/09/29 20:09:57;;;;;;;;;;;;;;;;;;5055648;28;19925;-72
2023/09/29 20:12:24;;;;;;;;;;;;;;;;;;5055482;28;19925;-73
2023/09/29 20:14:51;;;;;;;;;;;;;;;;;;5055331;28;19925;-73
2023/09/29 20:17:19;;;;;;;;;;;;;;;;;;5054636;28;19948;-72
2023/09/29 20:19:46;;;;;;;;;;;;;;;;;;5054960;28;19925;-72
2023/09/29 20:22:13;;;;;;;;;;;;;;;;;;5054625;28;19936;-73
2023/09/29 20:24:40;;;;;;;;;;;;;;;;;;5054670;28;20243;-74
2023/09/29 20:27:07;;;;;;;;;;;;;;;;;;5054468;28;19925;-74
2023/09/29 20:29:34;;;;;;;;;;;;;;;;;;5054571;28;19924;-74
2023/09/29 20:32:02;;;;;;;;;;;;;;;;;;5054542;28;19925;-72
2023/09/29 20:34:29;;;;;;;;;;;;;;;;;;5054739;28;20019;-72
2023/09/29 20:36:56;;;;;;;;;;;;;;;;;;5054421;28;19925;-73
2023/09/29 20:39:22;;;;;;;;;;;;;;;;;;5054080;28;20393;-73